Time;durP1;ratioP1;P1;durP2;ratioP2;P2;SDS_P1;SDS_P2;PMS_P1;PMS_P2;Temp;Humidity;BMP_temperature;BMP_pressure;BME280_temperature;BME280_humidity;BME280_pressure;Samples;Min_cycle;Max_cycle;Signal;HPM_P1;HPM_P2
2022/03/06 00:01:56;;;;;;;46.90;26.30;;;;;;;4.35;100.00;101558.53;4976372;28;20031;-72
2022/03/06 00:04:41;;;;;;;49.40;27.15;;;;;;;4.60;100.00;101553.00;4976133;28;20341;-74
2022/03/06 00:07:27;;;;;;;46.15;26.13;;;;;;;4.48;100.00;101552.78;4962880;28;20050;-74
2022/03/06 00:10:13;;;;;;;43.83;25.17;;;;;;;4.15;100.00;101556.38;4976577;28;20034;-73
2022/03/06 00:12:59;;;;;;;44.75;24.00;;;;;;;4.34;100.00;101559.38;4976844;28;20117;-73
2022/03/06 00:15:45;;;;;;;42.60;24.30;;;;;;;4.34;100.00;101558.53;4976648;28;20468;-73
2022/03/06 00:18:30;;;;;;;41.80;22.70;;;;;;;4.12;100.00;101558.88;4962438;28;20460;-72
2022/03/06 00:21:16;;;;;;;38.58;22.40;;;;;;;3.94;100.00;101550.72;4977320;28;20038;-73
2022/03/06 00:24:03;;;;;;;36.97;21.88;;;;;;;4.13;100.00;101545.97;4976946;28;20031;-73
2022/03/06 00:26:48;;;;;;;36.40;21.35;;;;;;;4.14;100.00;101552.03;4977459;28;20429;-74
2022/03/06 00:29:34;;;;;;;30.67;19.25;;;;;;;4.17;100.00;101550.38;4976929;28;20097;-72
2022/03/06 00:32:20;;;;;;;35.85;19.98;;;;;;;4.37;100.00;101548.19;4977089;28;20031;-75
2022/03/06 00:35:08;;;;;;;30.80;18.80;;;;;;;3.99;100.00;101549.09;4977322;28;20035;-73
2022/03/06 00:37:54;;;;;;;36.38;19.70;;;;;;;4.22;100.00;101553.06;4976815;28;20042;-74
2022/03/06 00:40:42;;;;;;;30.85;18.30;;;;;;;4.01;100.00;101553.47;4976694;28;20037;-72
2022/03/06 00:43:27;;;;;;;33.83;18.38;;;;;;;4.25;100.00;101547.94;4976250;28;20388;-73
2022/03/06 00:46:13;;;;;;;31.30;17.55;;;;;;;4.42;100.00;101549.19;4976870;28;20122;-73
2022/03/06 00:48:59;;;;;;;31.45;17.67;;;;;;;4.07;100.00;101552.75;4976518;28;20035;-73
2022/03/06 00:51:45;;;;;;;30.65;17.70;;;;;;;3.93;100.00;101560.19;4976623;28;20350;-73
2022/03/06 00:54:31;;;;;;;28.52;16.25;;;;;;;4.03;100.00;101564.72;4976470;28;20026;-72
2022/03/06 00:57:16;;;;;;;31.85;17.90;;;;;;;4.21;100.00;101562.56;4976586;28;20423;-73
2022/03/06 01:00:05;;;;;;;28.00;16.92;;;;;;;4.08;100.00;101568.34;4975745;28;20045;-73
2022/03/06 01:02:51;;;;;;;31.63;17.58;;;;;;;4.27;100.00;101560.09;4961651;28;20027;-73
2022/03/06 01:05:37;;;;;;;29.38;16.33;;;;;;;4.22;100.00;101559.13;4976644;28;20031;-74
2022/03/06 01:08:23;;;;;;;26.05;15.23;;;;;;;4.38;100.00;101555.16;4976387;28;20030;-74
2022/03/06 01:11:09;;;;;;;27.15;15.10;;;;;;;4.24;100.00;101561.75;4975645;28;20030;-73
2022/03/06 01:13:55;;;;;;;27.77;15.20;;;;;;;4.40;100.00;101563.81;4976200;28;20038;-74
2022/03/06 01:16:41;;;;;;;23.00;13.80;;;;;;;4.19;100.00;101571.16;4976078;28;20039;-73
2022/03/06 01:19:27;;;;;;;23.42;13.52;;;;;;;4.16;100.00;101568.50;4976564;28;20093;-73
2022/03/06 01:22:13;;;;;;;23.58;13.68;;;;;;;4.06;100.00;101562.22;4975908;28;20027;-73
2022/03/06 01:24:58;;;;;;;23.35;13.13;;;;;;;4.17;100.00;101559.84;4975846;28;20033;-73
2022/03/06 01:27:44;;;;;;;22.35;12.85;;;;;;;4.04;100.00;101550.94;4975257;28;20044;-73
2022/03/06 01:30:30;;;;;;;22.02;13.07;;;;;;;4.44;100.00;101534.50;4975469;28;20054;-72
2022/03/06 01:33:16;;;;;;;21.08;13.15;;;;;;;4.18;100.00;101531.38;4975403;28;20031;-73
2022/03/06 01:36:03;;;;;;;22.15;13.45;;;;;;;4.18;100.00;101521.00;4975135;28;20049;-73
2022/03/06 01:38:49;;;;;;;20.45;12.45;;;;;;;4.15;100.00;101523.50;4975896;28;20026;-74
2022/03/06 01:41:36;;;;;;;24.85;13.05;;;;;;;3.80;100.00;101521.00;4975546;28;20113;-72
2022/03/06 01:44:22;;;;;;;22.95;13.27;;;;;;;3.65;100.00;101516.38;4975047;28;20023;-73
2022/03/06 01:47:08;;;;;;;22.05;13.05;;;;;;;3.90;100.00;101510.88;4961288;28;20051;-73
2022/03/06 01:49:53;;;;;;;23.30;13.25;;;;;;;3.84;100.00;101515.94;4975561;28;20041;-72
2022/03/06 01:52:40;;;;;;;23.52;13.32;;;;;;;3.82;100.00;101519.34;4974837;28;20062;-73
2022/03/06 01:55:27;;;;;;;23.33;12.75;;;;;;;4.04;100.00;101514.66;4975295;28;20051;-72
2022/03/06 02:04:33;;;;;;;25.77;14.20;;;;;;;3.13;100.00;101515.94;5086237;23;20051;-73
2022/03/06 02:07:25;;;;;;;26.23;14.45;;;;;;;3.23;100.00;101524.81;4955674;29;20039;-73
2022/03/06 02:10:14;;;;;;;26.92;14.82;;;;;;;3.40;100.00;101528.69;4954502;29;20363;-73
2022/03/06 02:12:59;;;;;;;28.45;16.00;;;;;;;3.23;100.00;101530.00;4955106;28;20031;-72
2022/03/06 02:19:27;;;;;;;31.58;16.55;;;;;;;3.24;100.00;101537.81;4960443;29;20045;-73
2022/03/06 02:22:13;;;;;;;31.17;17.17;;;;;;;3.33;100.00;101538.03;4959078;28;20031;-73
2022/03/06 02:25:02;;;;;;;37.17;18.17;;;;;;;3.09;100.00;101536.56;4958650;29;20448;-74
2022/03/06 02:27:49;;;;;;;30.25;16.73;;;;;;;2.65;100.00;101547.44;4960111;28;20472;-73
2022/03/06 02:30:38;;;;;;;32.90;17.92;;;;;;;2.65;100.00;101543.13;4958777;29;20332;-73
2022/03/06 02:33:23;;;;;;;36.53;18.17;;;;;;;2.53;100.00;101537.63;4958890;28;20093;-72
2022/03/06 02:36:09;;;;;;;32.88;17.90;;;;;;;2.81;100.00;101537.53;4958297;29;20042;-74
2022/03/06 02:38:55;;;;;;;39.05;21.13;;;;;;;3.01;100.00;101551.88;4959270;29;20035;-72
2022/03/06 02:41:41;;;;;;;38.10;19.63;;;;;;;2.59;100.00;101545.56;4958331;29;20448;-74
2022/03/06 02:44:27;;;;;;;39.22;20.48;;;;;;;2.77;100.00;101550.38;4957789;29;20027;-74
2022/03/06 02:47:12;;;;;;;39.15;19.73;;;;;;;2.62;100.00;101545.63;4959324;28;20371;-73
2022/03/06 02:49:58;;;;;;;35.08;18.38;;;;;;;2.57;100.00;101554.97;4958237;29;20019;-74
2022/03/06 02:52:44;;;;;;;34.05;18.10;;;;;;;2.56;100.00;101548.06;4957599;28;20031;-73
2022/03/06 02:55:31;;;;;;;33.65;17.83;;;;;;;2.64;100.00;101551.75;4958454;29;20027;-73
2022/03/06 02:58:16;;;;;;;33.80;17.23;;;;;;;2.63;100.00;101549.09;4958771;29;20118;-74
2022/03/06 03:01:02;;;;;;;31.77;16.85;;;;;;;2.50;100.00;101547.03;4945102;29;20125;-73
2022/03/06 03:03:49;;;;;;;34.60;17.70;;;;;;;2.51;100.00;101544.47;4957939;28;20412;-73
2022/03/06 03:06:36;;;;;;;33.88;16.33;;;;;;;2.86;100.00;101543.69;4958968;29;20019;-73
2022/03/06 03:09:22;;;;;;;32.70;17.35;;;;;;;2.56;100.00;101542.88;4944395;29;20023;-73
2022/03/06 03:12:08;;;;;;;36.40;18.75;;;;;;;2.46;100.00;101546.06;4943819;28;20054;-72
2022/03/06 03:14:54;;;;;;;36.42;17.60;;;;;;;2.08;100.00;101541.50;4957865;29;20027;-73
2022/03/06 03:17:40;;;;;;;39.35;19.00;;;;;;;1.79;100.00;101546.59;4958211;29;20038;-73
2022/03/06 03:20:26;;;;;;;41.95;17.92;;;;;;;2.09;100.00;101547.53;4957549;29;20027;-73
2022/03/06 03:23:12;;;;;;;39.30;18.23;;;;;;;1.74;100.00;101545.59;4957257;28;20031;-72
2022/03/06 03:25:57;;;;;;;38.38;17.33;;;;;;;1.61;100.00;101549.50;4956833;28;20476;-72
2022/03/06 03:28:43;;;;;;;32.83;17.25;;;;;;;1.87;100.00;101545.13;4956913;29;20517;-73
2022/03/06 03:31:29;;;;;;;34.45;17.60;;;;;;;2.25;100.00;101548.00;4957405;29;20445;-74
2022/03/06 03:34:15;;;;;;;35.88;18.70;;;;;;;2.36;100.00;101549.22;4942739;29;20045;-73
2022/03/06 03:37:00;;;;;;;36.70;17.98;;;;;;;2.45;100.00;101552.06;4942904;29;20027;-73
2022/03/06 03:39:47;;;;;;;36.42;17.08;;;;;;;1.95;100.00;101549.72;4956717;29;20086;-72
2022/03/06 03:42:32;;;;;;;37.17;17.45;;;;;;;1.61;100.00;101558.97;4958577;28;20439;-72
2022/03/06 03:45:18;;;;;;;39.25;17.98;;;;;;;1.84;100.00;101553.66;4957208;29;20477;-73
2022/03/06 03:48:04;;;;;;;40.58;18.52;;;;;;;1.55;100.00;101557.06;4957661;29;20110;-74
2022/03/06 03:50:52;;;;;;;34.05;16.52;;;;;;;1.58;100.00;101559.75;4956764;29;20043;-73
2022/03/06 03:53:38;;;;;;;37.20;17.08;;;;;;;1.61;100.00;101562.41;4942956;29;20062;-73
2022/03/06 03:56:23;;;;;;;40.13;17.60;;;;;;;1.81;100.00;101565.63;4957078;29;20035;-73
2022/03/06 03:59:10;;;;;;;32.92;17.23;;;;;;;1.60;100.00;101573.56;4957009;29;20027;-73
2022/03/06 04:01:55;;;;;;;34.33;17.73;;;;;;;1.87;100.00;101578.72;4957542;29;20175;-73
2022/03/06 04:04:41;;;;;;;32.05;17.08;;;;;;;1.64;100.00;101580.59;4943646;29;20047;-74
2022/03/06 04:07:27;;;;;;;32.60;16.88;;;;;;;1.61;100.00;101583.06;4956351;29;20046;-73
2022/03/06 04:10:13;;;;;;;30.58;16.92;;;;;;;1.75;100.00;101591.25;4956420;29;20027;-74
2022/03/06 04:12:58;;;;;;;32.78;17.45;;;;;;;1.32;100.00;101591.56;4956763;28;20099;-73
2022/03/06 04:15:45;;;;;;;29.33;16.67;;;;;;;1.11;100.00;101596.00;4943126;29;20035;-73
2022/03/06 04:18:31;;;;;;;30.55;16.98;;;;;;;1.27;100.00;101584.50;4943613;29;20031;-73
2022/03/06 04:21:16;;;;;;;33.92;17.80;;;;;;;1.30;100.00;101587.19;4957235;29;20039;-73
2022/03/06 04:24:02;;;;;;;34.00;18.35;;;;;;;1.13;100.00;101594.38;4956242;28;20027;-73
2022/03/06 04:26:48;;;;;;;38.33;17.92;;;;;;;0.94;100.00;101589.41;4943405;29;20367;-73
2022/03/06 04:29:34;;;;;;;34.50;18.63;;;;;;;0.78;100.00;101587.09;4942726;29;20066;-73
2022/03/06 04:32:20;;;;;;;39.40;19.52;;;;;;;0.86;100.00;101590.84;4956864;28;20114;-73
2022/03/06 04:35:07;;;;;;;37.67;19.65;;;;;;;0.81;100.00;101588.91;4956722;29;20037;-72
2022/03/06 04:37:53;;;;;;;33.50;18.90;;;;;;;0.82;100.00;101594.13;4956998;28;20039;-73
2022/03/06 04:40:38;;;;;;;39.50;19.67;;;;;;;0.83;100.00;101582.09;4956775;29;20443;-73
2022/03/06 04:43:24;;;;;;;35.72;18.30;;;;;;;0.78;100.00;101579.38;4955784;28;20118;-73
2022/03/06 04:46:11;;;;;;;40.47;21.27;;;;;;;0.86;100.00;101580.50;4956879;29;20094;-73
2022/03/06 04:48:57;;;;;;;37.50;20.45;;;;;;;0.61;100.00;101585.63;4956305;29;20028;-73
2022/03/06 04:51:43;;;;;;;37.88;20.95;;;;;;;0.71;100.00;101585.13;4955645;29;20460;-72
2022/03/06 04:54:29;;;;;;;36.83;21.10;;;;;;;0.61;100.00;101590.78;4941418;29;20118;-72
2022/03/06 04:57:14;;;;;;;38.30;20.17;;;;;;;0.69;100.00;101585.91;4955726;29;20039;-73
2022/03/06 05:00:00;;;;;;;37.72;20.27;;;;;;;0.67;100.00;101591.00;4956322;29;20479;-73
2022/03/06 05:02:46;;;;;;;34.85;19.48;;;;;;;0.60;100.00;101581.28;4956310;28;20592;-73
2022/03/06 05:05:32;;;;;;;34.80;18.27;;;;;;;0.67;100.00;101585.84;4956253;29;20385;-72
2022/03/06 05:08:18;;;;;;;36.10;19.00;;;;;;;0.76;100.00;101591.31;4956350;29;20106;-73
2022/03/06 05:11:04;;;;;;;34.55;18.88;;;;;;;0.70;100.00;101596.28;4956324;29;20041;-73
2022/03/06 05:13:49;;;;;;;41.72;19.92;;;;;;;0.69;100.00;101594.53;4955601;28;20042;-73
2022/03/06 05:16:35;;;;;;;35.47;18.88;;;;;;;0.72;100.00;101592.03;4955095;29;20082;-73
2022/03/06 05:19:22;;;;;;;34.10;19.27;;;;;;;1.15;100.00;101604.72;4956792;29;20058;-73
2022/03/06 05:22:08;;;;;;;35.15;19.42;;;;;;;0.96;100.00;101613.53;4955139;28;20078;-73
2022/03/06 05:24:53;;;;;;;35.40;18.13;;;;;;;0.82;100.00;101606.13;4956441;29;20363;-72
2022/03/06 05:27:39;;;;;;;35.78;18.60;;;;;;;0.95;100.00;101616.06;4956510;29;20460;-73
2022/03/06 05:30:25;;;;;;;35.67;18.55;;;;;;;0.85;100.00;101620.03;4955766;29;20054;-72
2022/03/06 05:33:11;;;;;;;39.42;18.45;;;;;;;0.83;100.00;101608.78;4955448;28;20123;-73
2022/03/06 05:35:57;;;;;;;42.50;20.55;;;;;;;0.73;100.00;101614.44;4954505;29;20031;-73
2022/03/06 05:38:42;;;;;;;41.42;19.98;;;;;;;0.74;100.00;101615.28;4941625;29;20098;-73
2022/03/06 05:41:28;;;;;;;46.42;20.60;;;;;;;0.93;100.00;101620.28;4954780;29;20079;-73
2022/03/06 05:44:14;;;;;;;45.00;20.00;;;;;;;1.02;100.00;101616.34;4954964;28;20483;-73
2022/03/06 05:46:59;;;;;;;41.08;19.55;;;;;;;0.95;100.00;101614.38;4954781;29;20055;-74
2022/03/06 05:49:45;;;;;;;40.33;19.48;;;;;;;0.97;100.00;101615.31;4954851;28;20031;-72
2022/03/06 05:52:31;;;;;;;34.28;18.38;;;;;;;0.97;100.00;101614.41;4954656;28;20035;-74
2022/03/06 05:55:18;;;;;;;36.22;18.63;;;;;;;1.22;100.00;101606.69;4941080;29;20031;-73
2022/03/06 05:58:04;;;;;;;37.30;18.35;;;;;;;1.22;100.00;101614.44;4955954;29;20035;-73
2022/03/06 06:00:49;;;;;;;45.45;20.50;;;;;;;1.41;100.00;101614.25;4956503;28;20035;-74
2022/03/06 06:03:35;;;;;;;40.78;19.55;;;;;;;1.18;100.00;101610.00;4954604;28;20069;-74
2022/03/06 06:06:21;;;;;;;36.55;18.33;;;;;;;1.07;100.00;101622.53;4955128;29;20024;-73
2022/03/06 06:09:07;;;;;;;40.47;19.17;;;;;;;0.94;100.00;101617.78;4940528;29;20048;-73
2022/03/06 06:11:53;;;;;;;43.53;18.92;;;;;;;1.37;100.00;101612.38;4955489;29;20042;-74
2022/03/06 06:14:39;;;;;;;31.65;17.52;;;;;;;1.32;100.00;101613.94;4954459;29;20038;-73
2022/03/06 06:17:25;;;;;;;33.10;17.98;;;;;;;1.38;100.00;101614.13;4954203;29;20034;-73
2022/03/06 06:20:11;;;;;;;33.85;18.63;;;;;;;1.62;100.00;101615.81;4941957;29;20059;-72
2022/03/06 06:22:57;;;;;;;32.58;17.45;;;;;;;1.75;100.00;101607.63;4955560;28;20127;-74
2022/03/06 06:25:42;;;;;;;31.50;16.88;;;;;;;1.82;100.00;101609.59;4954547;29;20019;-73
2022/03/06 06:28:28;;;;;;;34.50;17.48;;;;;;;2.01;100.00;101611.91;4954984;29;20031;-73
2022/03/06 06:31:14;;;;;;;33.15;17.63;;;;;;;1.97;100.00;101604.03;4954565;29;20122;-73
2022/03/06 06:34:00;;;;;;;32.20;17.35;;;;;;;1.97;100.00;101606.59;4941189;29;20027;-73
2022/03/06 06:36:46;;;;;;;31.40;17.08;;;;;;;1.59;100.00;101607.06;4941263;29;20034;-73
2022/03/06 06:39:32;;;;;;;28.30;16.85;;;;;;;1.92;100.00;101611.63;4942437;29;20050;-75
2022/03/06 06:42:18;;;;;;;30.00;16.60;;;;;;;2.01;100.00;101616.22;4954200;28;20038;-75
2022/03/06 06:45:04;;;;;;;29.75;16.45;;;;;;;2.05;100.00;101613.75;4955224;29;20027;-72
2022/03/06 06:47:50;;;;;;;28.20;14.95;;;;;;;2.15;100.00;101620.97;4955076;29;20421;-74
2022/03/06 06:50:36;;;;;;;28.33;15.20;;;;;;;2.23;100.00;101628.94;4954314;29;20035;-74
2022/03/06 06:53:21;;;;;;;29.13;15.02;;;;;;;2.07;100.00;101621.56;4954271;28;20460;-74
2022/03/06 06:56:07;;;;;;;24.58;14.02;;;;;;;2.19;100.00;101628.00;4954460;29;20031;-74
2022/03/06 06:58:53;;;;;;;24.83;13.68;;;;;;;1.93;100.00;101628.88;4941023;29;20031;-76
2022/03/06 07:01:39;;;;;;;25.60;14.30;;;;;;;2.33;100.00;101631.84;4942178;29;20039;-73
2022/03/06 07:04:24;;;;;;;25.95;13.98;;;;;;;2.32;100.00;101632.69;4957516;28;20091;-74
2022/03/06 07:07:10;;;;;;;23.35;13.38;;;;;;;2.36;100.00;101629.38;4945215;29;20464;-73
2022/03/06 07:09:56;;;;;;;24.92;14.43;;;;;;;2.31;100.00;101630.94;4957360;29;20495;-72
2022/03/06 07:12:44;;;;;;;22.60;12.70;;;;;;;2.31;100.00;101636.13;4957502;28;20059;-73
2022/03/06 07:15:32;;;;;;;24.70;13.43;;;;;;;2.41;100.00;101627.78;4958488;29;20023;-73
2022/03/06 07:18:18;;;;;;;25.80;13.85;;;;;;;2.54;100.00;101640.28;4958431;29;20321;-73
2022/03/06 07:21:04;;;;;;;24.13;13.70;;;;;;;2.46;100.00;101628.81;4957264;29;20142;-74
2022/03/06 07:23:49;;;;;;;23.98;14.48;;;;;;;2.56;100.00;101627.34;4956890;28;20034;-73
2022/03/06 07:26:36;;;;;;;22.80;12.95;;;;;;;2.62;100.00;101625.81;4944190;29;20027;-74
2022/03/06 07:29:21;;;;;;;23.45;13.13;;;;;;;2.71;100.00;101628.69;4958102;29;20420;-73
2022/03/06 07:32:07;;;;;;;26.42;13.15;;;;;;;2.60;100.00;101627.50;4957308;28;20023;-73
2022/03/06 07:34:53;;;;;;;22.33;13.15;;;;;;;2.85;100.00;101629.94;4943358;29;20023;-74
2022/03/06 07:37:40;;;;;;;22.20;12.88;;;;;;;3.35;100.00;101620.94;4957573;29;20031;-75
2022/03/06 07:40:26;;;;;;;22.48;12.88;;;;;;;3.13;100.00;101629.84;4957714;29;20031;-74
2022/03/06 07:43:12;;;;;;;19.58;12.43;;;;;;;3.99;100.00;101625.13;4957848;28;20027;-74
2022/03/06 07:45:57;;;;;;;19.08;12.40;;;;;;;3.80;100.00;101628.16;4956814;29;20575;-74
2022/03/06 07:48:43;;;;;;;18.13;11.82;;;;;;;4.11;100.00;101629.75;4957700;29;20467;-75
2022/03/06 07:51:29;;;;;;;22.48;12.18;;;;;;;3.93;100.00;101616.34;4957858;29;20032;-75
2022/03/06 07:54:15;;;;;;;23.95;13.25;;;;;;;4.08;100.00;101620.19;4957092;28;20163;-74
2022/03/06 07:57:00;;;;;;;20.52;12.35;;;;;;;3.81;100.00;101619.53;4956634;29;20110;-75
2022/03/06 07:59:46;;;;;;;20.27;11.95;;;;;;;4.28;100.00;101620.63;4956288;29;20035;-75
2022/03/06 08:02:32;;;;;;;20.02;10.43;;;;;;;4.60;100.00;101619.59;4943296;28;20190;-75
2022/03/06 08:05:18;;;;;;;17.00;10.20;;;;;;;4.21;100.00;101622.22;4943516;29;20031;-75
2022/03/06 08:08:04;;;;;;;18.05;11.20;;;;;;;4.67;100.00;101611.97;4956642;29;20031;-74
2022/03/06 08:10:50;;;;;;;17.40;10.40;;;;;;;4.86;100.00;101618.38;4957576;29;20035;-73
2022/03/06 08:13:35;;;;;;;16.13;10.07;;;;;;;4.52;100.00;101611.66;4955510;28;20120;-74
2022/03/06 08:16:21;;;;;;;16.02;10.20;;;;;;;5.00;100.00;101611.75;4956126;29;20027;-75
2022/03/06 08:19:07;;;;;;;15.52;9.63;;;;;;;4.74;100.00;101618.13;4957588;29;20035;-74
2022/03/06 08:21:53;;;;;;;15.85;10.05;;;;;;;4.79;100.00;101619.13;4944386;29;20031;-74
2022/03/06 08:24:39;;;;;;;16.73;10.02;;;;;;;5.12;100.00;101609.41;4957257;29;20337;-74
2022/03/06 08:27:25;;;;;;;17.17;10.48;;;;;;;5.10;100.00;101606.75;4956251;29;20066;-73
2022/03/06 08:30:11;;;;;;;18.88;9.93;;;;;;;4.66;100.00;101615.41;4941700;29;20042;-73
2022/03/06 08:32:56;;;;;;;17.52;9.82;;;;;;;4.45;100.00;101609.78;4943546;29;20058;-73
2022/03/06 08:35:42;;;;;;;15.75;9.68;;;;;;;4.92;100.00;101602.94;4956689;29;20081;-73
2022/03/06 08:38:28;;;;;;;15.98;10.93;;;;;;;4.71;100.00;101603.38;4957437;29;20114;-74
2022/03/06 08:41:14;;;;;;;31.75;16.65;;;;;;;5.09;100.00;101599.81;4955749;29;20038;-72
2022/03/06 08:44:00;;;;;;;18.27;9.00;;;;;;;4.63;100.00;101599.75;4955553;28;20039;-72
2022/03/06 08:46:45;;;;;;;14.50;9.10;;;;;;;4.51;100.00;101599.50;4956844;29;20023;-72
2022/03/06 08:49:31;;;;;;;15.43;9.38;;;;;;;5.36;100.00;101594.25;4957531;29;20031;-73
2022/03/06 08:52:17;;;;;;;68.22;21.75;;;;;;;5.79;96.66;101598.44;4956668;28;20109;-74
2022/03/06 08:55:04;;;;;;;18.30;10.02;;;;;;;6.63;91.52;101595.31;4955647;29;20041;-72
2022/03/06 08:57:50;;;;;;;17.33;10.02;;;;;;;7.11;86.45;101608.06;4955984;29;20346;-73
2022/03/06 09:00:36;;;;;;;27.85;11.82;;;;;;;6.08;89.93;101612.78;4955768;29;20046;-74
2022/03/06 09:03:22;;;;;;;23.25;10.65;;;;;;;5.70;88.37;101603.50;4956057;28;20079;-72
2022/03/06 09:06:08;;;;;;;16.23;10.52;;;;;;;5.90;90.46;101604.72;4956140;29;20491;-73
2022/03/06 09:08:53;;;;;;;15.20;10.27;;;;;;;5.64;87.69;101616.38;4955390;29;20042;-74
2022/03/06 09:11:39;;;;;;;14.48;9.48;;;;;;;5.77;90.57;101615.72;4961196;29;20035;-73
2022/03/06 09:14:26;;;;;;;13.18;8.90;;;;;;;5.90;89.45;101625.53;4958102;28;20094;-73
2022/03/06 09:17:11;;;;;;;13.85;9.18;;;;;;;5.65;88.02;101615.50;4956843;29;20023;-73
2022/03/06 09:19:57;;;;;;;13.13;8.73;;;;;;;5.46;87.43;101622.13;4956933;29;20042;-72
2022/03/06 09:22:44;;;;;;;12.32;8.20;;;;;;;4.98;90.91;101600.44;4956569;28;20027;-74
2022/03/06 09:25:32;;;;;;;15.77;9.52;;;;;;;5.58;90.01;101605.88;4956804;29;20019;-73
2022/03/06 09:28:18;;;;;;;13.88;9.00;;;;;;;5.68;88.85;101608.66;4956054;29;20045;-72
2022/03/06 09:31:04;;;;;;;17.15;9.65;;;;;;;5.55;87.14;101595.44;4956242;29;20460;-73
2022/03/06 09:33:50;;;;;;;14.90;9.40;;;;;;;5.54;90.06;101599.75;4956494;28;20396;-74
2022/03/06 09:36:36;;;;;;;13.48;9.38;;;;;;;5.76;87.88;101594.06;4943130;29;20038;-74
2022/03/06 09:39:22;;;;;;;14.70;9.10;;;;;;;5.90;86.38;101602.13;4956735;29;20058;-75
2022/03/06 09:42:08;;;;;;;14.80;9.15;;;;;;;5.58;87.18;101591.16;4942719;28;20466;-74
2022/03/06 09:44:54;;;;;;;15.77;8.90;;;;;;;5.59;88.82;101598.13;4956643;29;20055;-73
2022/03/06 09:47:41;;;;;;;16.77;9.23;;;;;;;5.96;88.59;101591.78;4956437;29;20456;-73
2022/03/06 09:50:27;;;;;;;14.25;9.00;;;;;;;6.24;86.87;101604.34;4957845;29;20097;-73
2022/03/06 09:53:12;;;;;;;15.77;9.70;;;;;;;6.54;83.64;101596.94;4956336;28;20468;-73
2022/03/06 09:55:59;;;;;;;14.52;9.40;;;;;;;5.71;87.61;101590.53;4955903;29;20492;-71
2022/03/06 09:58:44;;;;;;;15.13;9.60;;;;;;;6.26;86.10;101590.50;4956837;29;20069;-75
2022/03/06 10:01:31;;;;;;;16.15;10.35;;;;;;;5.93;89.82;101584.81;4942195;29;20031;-73
2022/03/06 10:04:26;;;;;;;17.40;10.60;;;;;;;5.74;89.00;101589.69;4955754;28;20118;-74
2022/03/06 10:07:17;;;;;;;12.43;8.07;;;;;;;6.21;86.79;101588.69;4955712;29;20027;-73
2022/03/06 10:10:03;;;;;;;11.07;8.20;;;;;;;5.72;86.61;101575.78;4942900;29;20376;-72
2022/03/06 10:12:48;;;;;;;15.25;8.00;;;;;;;5.53;88.61;101577.22;4942985;28;20031;-72
2022/03/06 10:16:02;;;;;;;16.67;8.45;;;;;;;5.70;87.10;101572.28;4955486;29;20106;-72
2022/03/06 10:18:55;;;;;;;17.00;9.07;;;;;;;5.33;91.56;101576.88;4942702;29;20027;-71
2022/03/06 10:21:41;;;;;;;13.73;8.20;;;;;;;5.38;91.18;101572.63;4956584;29;20069;-72
2022/03/06 10:24:28;;;;;;;14.45;8.25;;;;;;;5.61;89.28;101562.63;4955548;29;20027;-72
2022/03/06 10:27:14;;;;;;;12.77;7.90;;;;;;;5.54;90.45;101563.34;4956248;29;20050;-73
2022/03/06 10:29:59;;;;;;;12.77;8.07;;;;;;;5.72;87.67;101547.19;4959515;29;20035;-71
2022/03/06 10:32:45;;;;;;;16.17;8.30;;;;;;;5.92;88.46;101551.88;4956981;28;20079;-73
2022/03/06 10:35:32;;;;;;;13.55;7.93;;;;;;;5.68;86.68;101542.78;4955939;28;20123;-71
2022/03/06 10:38:27;;;;;;;13.80;8.80;;;;;;;5.44;92.54;101541.53;4960138;29;20027;-73
2022/03/06 10:41:17;;;;;;;12.10;8.07;;;;;;;5.94;87.56;101542.34;4959508;29;20027;-72
2022/03/06 10:44:04;;;;;;;12.45;8.15;;;;;;;5.62;87.99;101533.16;4959882;28;20524;-72
2022/03/06 10:47:05;;;;;;;15.15;9.10;;;;;;;5.90;87.51;101527.56;4959965;29;20046;-73
2022/03/06 10:50:05;;;;;;;12.38;8.10;;;;;;;5.77;86.71;101516.91;4960709;29;20127;-71
2022/03/06 10:52:53;;;;;;;12.77;8.05;;;;;;;5.46;90.42;101519.94;4944868;29;20039;-72
2022/03/06 10:55:39;;;;;;;12.45;7.88;;;;;;;5.87;86.81;101517.09;4959452;29;20110;-72
2022/03/06 10:58:27;;;;;;;11.05;7.35;;;;;;;5.46;88.11;101518.19;4959710;29;20035;-71
2022/03/06 11:01:12;;;;;;;13.23;8.82;;;;;;;5.54;90.85;101510.53;4959569;29;20110;-71
2022/03/06 11:04:01;;;;;;;12.63;7.82;;;;;;;5.73;90.49;101515.13;4959445;28;20208;-71
2022/03/06 11:06:49;;;;;;;14.30;8.30;;;;;;;6.43;86.31;101507.44;4959209;29;20015;-71
2022/03/06 11:09:37;;;;;;;11.63;7.53;;;;;;;5.77;88.47;101515.19;4959924;28;20055;-73
2022/03/06 11:12:24;;;;;;;11.57;7.93;;;;;;;6.27;86.96;101506.38;4959088;28;20455;-71
2022/03/06 11:15:10;;;;;;;16.73;8.68;;;;;;;6.40;84.07;101502.19;4945851;29;20028;-71
2022/03/06 11:18:00;;;;;;;12.80;7.82;;;;;;;6.62;84.35;101504.19;4958696;29;20101;-73
2022/03/06 11:20:46;;;;;;;13.68;7.75;;;;;;;6.24;84.51;101495.06;4958698;29;20027;-73
2022/03/06 11:23:45;;;;;;;11.55;7.57;;;;;;;5.96;84.64;101492.97;4958678;28;20027;-73
2022/03/06 11:27:08;;;;;;;12.02;7.40;;;;;;;5.96;83.85;101499.06;4959370;29;20364;-72
2022/03/06 11:30:08;;;;;;;12.73;7.88;;;;;;;6.69;81.66;101483.44;4958555;29;20110;-72
2022/03/06 11:33:08;;;;;;;11.52;7.18;;;;;;;6.07;83.09;101473.19;4959037;28;20050;-72
2022/03/06 11:35:55;;;;;;;12.20;7.07;;;;;;;6.33;81.77;101483.03;4958336;29;20101;-72
2022/03/06 11:38:44;;;;;;;9.07;6.38;;;;;;;6.37;80.29;101482.22;4959404;29;20035;-72
2022/03/06 11:41:36;;;;;;;12.10;7.28;;;;;;;6.34;79.95;101482.19;4958069;29;20031;-72
2022/03/06 11:45:02;;;;;;;8.95;6.43;;;;;;;6.56;77.12;101472.88;4945433;29;20126;-71
2022/03/06 11:47:48;;;;;;;10.00;6.90;;;;;;;6.90;77.62;101461.94;4957236;28;20059;-72
2022/03/06 11:50:33;;;;;;;9.48;6.70;;;;;;;6.43;79.94;101458.84;4958956;29;20128;-72
2022/03/06 11:53:40;;;;;;;11.23;6.57;;;;;;;6.30;80.81;101463.94;4958639;28;20027;-70
2022/03/06 11:56:34;;;;;;;10.55;6.82;;;;;;;6.17;83.98;101452.50;4958179;29;20031;-71
2022/03/06 11:59:22;;;;;;;12.48;7.90;;;;;;;6.37;86.50;101455.31;4957654;29;20131;-72
2022/03/06 12:02:13;;;;;;;13.10;8.30;;;;;;;6.23;87.10;101462.09;4957807;28;20113;-72
2022/03/06 12:04:59;;;;;;;17.98;8.70;;;;;;;5.91;89.20;101443.47;4959754;29;20043;-72
2022/03/06 12:07:46;;;;;;;15.45;7.97;;;;;;;6.23;87.35;101451.69;4944607;29;20027;-72
2022/03/06 12:10:32;;;;;;;16.77;8.73;;;;;;;5.92;92.25;101447.84;4957957;29;20077;-72
2022/03/06 12:13:19;;;;;;;13.82;8.68;;;;;;;6.35;90.94;101442.28;4958008;28;20049;-72
2022/03/06 12:16:08;;;;;;;12.95;7.65;;;;;;;6.54;86.81;101438.13;4957213;29;20037;-72
2022/03/06 12:19:04;;;;;;;11.20;7.35;;;;;;;6.08;91.15;101447.19;4944146;29;20027;-72
2022/03/06 12:21:49;;;;;;;17.73;8.68;;;;;;;5.87;91.58;101440.84;4943258;29;20380;-72
2022/03/06 12:24:36;;;;;;;14.30;7.97;;;;;;;5.96;90.04;101444.44;4956849;29;20455;-72
2022/03/06 12:27:25;;;;;;;14.32;8.65;;;;;;;6.17;89.87;101439.50;4957500;29;20051;-72
2022/03/06 12:30:13;;;;;;;15.45;9.35;;;;;;;6.27;90.54;101427.47;4957404;29;20042;-72
2022/03/06 12:33:32;;;;;;;12.95;8.45;;;;;;;6.01;92.42;101434.06;4943362;29;20039;-71
2022/03/06 12:36:21;;;;;;;11.20;7.45;;;;;;;5.79;95.56;101426.84;4957268;29;20027;-77
2022/03/06 12:39:10;;;;;;;12.20;8.05;;;;;;;5.92;94.99;101414.03;4957631;29;20031;-73
2022/03/06 12:41:56;;;;;;;14.80;8.05;;;;;;;5.92;95.77;101416.66;4956625;29;20031;-74
2022/03/06 12:44:46;;;;;;;18.40;9.10;;;;;;;5.99;94.74;101413.25;4957662;29;20030;-72
2022/03/06 12:47:32;;;;;;;13.45;8.25;;;;;;;6.01;96.15;101406.34;4956546;29;20037;-73
2022/03/06 12:50:20;;;;;;;12.73;7.50;;;;;;;5.63;94.65;101402.38;4956647;29;20417;-72
2022/03/06 12:53:06;;;;;;;10.93;7.35;;;;;;;5.86;93.42;101418.28;4957146;28;20035;-72
2022/03/06 12:55:58;;;;;;;12.57;7.50;;;;;;;5.97;91.77;101412.38;4943660;29;20043;-74